Airfield :







YOU CAN JOIN US ON...

 
LOGIN :

Register | Disclaimer

   EN    FR    IT 

 









Legend :    VFR   Marginal VFR   IFR   Intensive IFR   Very Intensive IFR
Visi :
Ceiling :
>= 8 km
>= 3000ft
5 to 8 km
1000 to 3000 ft
1500m to 5 km
500 to 1000 ft
800 to 1500m
200 to 500 ft
< 800m
< 200 ft
Symbols :   Thunderstorms  Fog  Heavy snow  Heavy precipitations  Wind > 20 kt






- Airport Elevation : 266 ft
- IATA code : MHT


KMHT - Manchester

CURRENT METAR :
  • 041353Z 30010KT 10SM BKN047 04/M07 A3013 RMK AO2 SLP218 T00391072

EXPIRED METARs :
  • 041253Z 28005KT 10SM OVC048 03/M08 A3011 RMK AO2 SLP214 T00281078
  • 041153Z 30009KT 10SM SCT050 03/M07 A3009 RMK AO2 SLP205 T00281072 10050 20022 53020

TAF KMHT
Valid from the 04 at 12:00 until the 05 at 12:00 UTC


041120Z 0412/0512 31008KT P6SM SCT050
FM041400 30010G17KT P6SM SCT250
FM042300 VRB03KT P6SM SKC
KZBW FIR / North America



MET'MAP, your aeronautical weather chart ! - Copyright ORBIFLY December 2007 - Disclaimer

ORBIFLY MET'MAP TEAM :

Programming & Development : Alexandra Zaïnal
Original concept : Baudouin d'Aumeries
Technical & hardware support : Manuel Goepfert
Assistance : Marc-Olivier Méhu




SOURCES & CREDITS :

   NOAA